sensor_id;sensor_type;location;lat;lon;timestamp;pressure;altitude;pressure_sealevel;temperature;humidity
78117;BME280;67887;59.082;37.928;2023-03-14T00:02:10;99259.41;;;-0.06;45.57
78117;BME280;67887;59.082;37.928;2023-03-14T00:04:36;99255.13;;;-0.06;45.55
78117;BME280;67887;59.082;37.928;2023-03-14T00:07:03;99249.97;;;-0.06;45.70
78117;BME280;67887;59.082;37.928;2023-03-14T00:09:29;99249.09;;;-0.03;45.59
78117;BME280;67887;59.082;37.928;2023-03-14T00:11:56;99242.25;;;-0.04;45.62
78117;BME280;67887;59.082;37.928;2023-03-14T00:14:23;99234.59;;;-0.07;46.17
78117;BME280;67887;59.082;37.928;2023-03-14T00:16:49;99230.31;;;-0.07;45.53
78117;BME280;67887;59.082;37.928;2023-03-14T00:19:15;99238.03;;;-0.07;45.87
78117;BME280;67887;59.082;37.928;2023-03-14T00:21:44;99237.97;;;-0.04;45.98
78117;BME280;67887;59.082;37.928;2023-03-14T00:24:10;99241.38;;;-0.05;45.88
78117;BME280;67887;59.082;37.928;2023-03-14T00:26:36;99243.94;;;-0.03;45.84
78117;BME280;67887;59.082;37.928;2023-03-14T00:29:03;99243.09;;;-0.02;46.29
78117;BME280;67887;59.082;37.928;2023-03-14T00:31:29;99235.41;;;-0.04;45.96
78117;BME280;67887;59.082;37.928;2023-03-14T00:33:56;99234.56;;;-0.06;45.98
78117;BME280;67887;59.082;37.928;2023-03-14T00:36:24;99230.31;;;-0.08;46.10
78117;BME280;67887;59.082;37.928;2023-03-14T00:38:51;99225.19;;;-0.07;45.96
78117;BME280;67887;59.082;37.928;2023-03-14T00:41:20;99229.50;;;-0.09;46.38
78117;BME280;67887;59.082;37.928;2023-03-14T00:43:49;99234.63;;;-0.10;45.83
78117;BME280;67887;59.082;37.928;2023-03-14T00:46:15;99233.78;;;-0.11;46.30
78117;BME280;67887;59.082;37.928;2023-03-14T00:48:44;99228.69;;;-0.14;46.09
78117;BME280;67887;59.082;37.928;2023-03-14T00:51:12;99224.41;;;-0.15;45.82
78117;BME280;67887;59.082;37.928;2023-03-14T00:53:43;99221.00;;;-0.15;46.19
78117;BME280;67887;59.082;37.928;2023-03-14T00:56:11;99218.41;;;-0.14;46.17
78117;BME280;67887;59.082;37.928;2023-03-14T00:58:38;99210.75;;;-0.17;45.88
78117;BME280;67887;59.082;37.928;2023-03-14T01:01:13;99209.91;;;-0.17;45.98
78117;BME280;67887;59.082;37.928;2023-03-14T01:03:40;99208.25;;;-0.22;45.86
78117;BME280;67887;59.082;37.928;2023-03-14T01:06:11;99197.97;;;-0.22;46.20
78117;BME280;67887;59.082;37.928;2023-03-14T01:08:38;99190.28;;;-0.23;45.99
78117;BME280;67887;59.082;37.928;2023-03-14T01:11:09;99171.50;;;-0.25;46.18
78117;BME280;67887;59.082;37.928;2023-03-14T01:13:36;99163.81;;;-0.27;46.00
78117;BME280;67887;59.082;37.928;2023-03-14T01:16:04;99167.28;;;-0.29;45.76
78117;BME280;67887;59.082;37.928;2023-03-14T01:18:31;99157.94;;;-0.33;46.18
78117;BME280;67887;59.082;37.928;2023-03-14T01:20:57;99150.22;;;-0.33;46.32
78117;BME280;67887;59.082;37.928;2023-03-14T01:23:23;99144.25;;;-0.35;45.93
78117;BME280;67887;59.082;37.928;2023-03-14T01:25:49;99140.88;;;-0.37;46.50
78117;BME280;67887;59.082;37.928;2023-03-14T01:28:16;99126.38;;;-0.40;46.31
78117;BME280;67887;59.082;37.928;2023-03-14T01:30:43;99130.69;;;-0.44;46.19
78117;BME280;67887;59.082;37.928;2023-03-14T01:33:09;99122.16;;;-0.46;46.46
78117;BME280;67887;59.082;37.928;2023-03-14T01:35:37;99122.19;;;-0.47;46.23
78117;BME280;67887;59.082;37.928;2023-03-14T01:38:03;99122.19;;;-0.49;46.16
78117;BME280;67887;59.082;37.928;2023-03-14T01:40:30;99109.38;;;-0.50;46.32
78117;BME280;67887;59.082;37.928;2023-03-14T01:42:57;99104.31;;;-0.55;46.16
78117;BME280;67887;59.082;37.928;2023-03-14T01:48:32;99078.66;;;-0.56;46.21
78117;BME280;67887;59.082;37.928;2023-03-14T01:51:00;99071.84;;;-0.57;46.35
78117;BME280;67887;59.082;37.928;2023-03-14T01:53:29;99065.88;;;-0.58;46.17
78117;BME280;67887;59.082;37.928;2023-03-14T01:55:56;99066.72;;;-0.59;46.40
78117;BME280;67887;59.082;37.928;2023-03-14T01:58:25;99056.44;;;-0.56;46.56
78117;BME280;67887;59.082;37.928;2023-03-14T02:00:56;99044.44;;;-0.54;46.60
78117;BME280;67887;59.082;37.928;2023-03-14T02:03:24;99045.28;;;-0.52;46.54
78117;BME280;67887;59.082;37.928;2023-03-14T02:05:53;99036.69;;;-0.51;46.46
78117;BME280;67887;59.082;37.928;2023-03-14T02:08:22;99030.72;;;-0.51;46.62
78117;BME280;67887;59.082;37.928;2023-03-14T02:10:57;99017.91;;;-0.51;46.23
78117;BME280;67887;59.082;37.928;2023-03-14T02:13:36;99009.34;;;-0.52;46.25
78117;BME280;67887;59.082;37.928;2023-03-14T02:16:21;99011.09;;;-0.54;46.07
78117;BME280;67887;59.082;37.928;2023-03-14T02:18:47;98997.44;;;-0.56;46.45
78117;BME280;67887;59.082;37.928;2023-03-14T02:22:14;98994.81;;;-0.53;46.78
78117;BME280;67887;59.082;37.928;2023-03-14T02:27:18;98971.78;;;-0.57;46.40
78117;BME280;67887;59.082;37.928;2023-03-14T02:32:23;98964.03;;;-0.54;46.79
78117;BME280;67887;59.082;37.928;2023-03-14T02:34:56;98952.09;;;-0.54;46.97
78117;BME280;67887;59.082;37.928;2023-03-14T02:37:29;98943.50;;;-0.54;46.56
78117;BME280;67887;59.082;37.928;2023-03-14T02:39:58;98940.09;;;-0.53;46.81
78117;BME280;67887;59.082;37.928;2023-03-14T02:42:25;98937.53;;;-0.53;46.73
78117;BME280;67887;59.082;37.928;2023-03-14T02:47:39;98915.28;;;-0.54;46.57
78117;BME280;67887;59.082;37.928;2023-03-14T02:50:12;98909.31;;;-0.53;47.37
78117;BME280;67887;59.082;37.928;2023-03-14T02:52:38;98894.72;;;-0.51;46.82
78117;BME280;67887;59.082;37.928;2023-03-14T02:55:05;98887.91;;;-0.52;46.92
78117;BME280;67887;59.082;37.928;2023-03-14T02:57:32;98855.34;;;-0.49;46.86
78117;BME280;67887;59.082;37.928;2023-03-14T02:59:59;98855.34;;;-0.49;46.84
78117;BME280;67887;59.082;37.928;2023-03-14T03:02:29;98834.75;;;-0.46;47.16
78117;BME280;67887;59.082;37.928;2023-03-14T03:04:55;98819.34;;;-0.44;46.95
78117;BME280;67887;59.082;37.928;2023-03-14T03:07:22;98797.06;;;-0.42;47.24
78117;BME280;67887;59.082;37.928;2023-03-14T03:09:48;98789.34;;;-0.40;47.13
78117;BME280;67887;59.082;37.928;2023-03-14T03:12:14;98794.41;;;-0.37;47.22
78117;BME280;67887;59.082;37.928;2023-03-14T03:14:40;98771.31;;;-0.37;47.02
78117;BME280;67887;59.082;37.928;2023-03-14T03:17:07;98778.03;;;-0.32;47.08
78117;BME280;67887;59.082;37.928;2023-03-14T03:19:34;98772.03;;;-0.31;47.71
78117;BME280;67887;59.082;37.928;2023-03-14T03:22:01;98772.03;;;-0.29;47.21
78117;BME280;67887;59.082;37.928;2023-03-14T03:24:27;98778.75;;;-0.25;46.91
78117;BME280;67887;59.082;37.928;2023-03-14T03:26:54;98759.09;;;-0.25;47.13
78117;BME280;67887;59.082;37.928;2023-03-14T03:29:20;98765.09;;;-0.27;47.13
78117;BME280;67887;59.082;37.928;2023-03-14T03:31:46;98756.44;;;-0.22;47.49
78117;BME280;67887;59.082;37.928;2023-03-14T03:34:13;98735.09;;;-0.22;47.01
78117;BME280;67887;59.082;37.928;2023-03-14T03:36:41;98724.75;;;-0.21;47.69
78117;BME280;67887;59.082;37.928;2023-03-14T03:39:07;98723.09;;;-0.22;47.19
78117;BME280;67887;59.082;37.928;2023-03-14T03:41:33;98699.09;;;-0.21;47.66
78117;BME280;67887;59.082;37.928;2023-03-14T03:44:00;98702.53;;;-0.20;47.16
78117;BME280;67887;59.082;37.928;2023-03-14T03:46:26;98690.50;;;-0.18;47.36
78117;BME280;67887;59.082;37.928;2023-03-14T03:48:57;98687.03;;;-0.15;47.53
78117;BME280;67887;59.082;37.928;2023-03-14T03:51:25;98674.19;;;-0.15;47.41
78117;BME280;67887;59.082;37.928;2023-03-14T03:53:52;98694.66;;;-0.14;47.53
78117;BME280;67887;59.082;37.928;2023-03-14T03:56:24;98680.91;;;-0.11;47.33
78117;BME280;67887;59.082;37.928;2023-03-14T03:58:50;98692.06;;;-0.11;47.48
78117;BME280;67887;59.082;37.928;2023-03-14T04:01:16;98702.38;;;-0.14;47.42
78117;BME280;67887;59.082;37.928;2023-03-14T04:03:46;98676.69;;;-0.14;47.83
78117;BME280;67887;59.082;37.928;2023-03-14T04:06:13;98649.38;;;-0.16;47.71
78117;BME280;67887;59.082;37.928;2023-03-14T04:08:42;98663.94;;;-0.17;47.61
78117;BME280;67887;59.082;37.928;2023-03-14T04:11:15;98677.69;;;-0.19;47.97
78117;BME280;67887;59.082;37.928;2023-03-14T04:14:08;98636.63;;;-0.19;47.84
78117;BME280;67887;59.082;37.928;2023-03-14T04:16:34;98629.78;;;-0.21;47.90
78117;BME280;67887;59.082;37.928;2023-03-14T04:19:08;98634.06;;;-0.19;48.30
78117;BME280;67887;59.082;37.928;2023-03-14T04:21:35;98612.69;;;-0.20;48.31
78117;BME280;67887;59.082;37.928;2023-03-14T04:24:01;98583.56;;;-0.19;47.96
78117;BME280;67887;59.082;37.928;2023-03-14T04:26:32;98592.06;;;-0.17;48.56
78117;BME280;67887;59.082;37.928;2023-03-14T04:28:58;98550.16;;;-0.17;47.95
78117;BME280;67887;59.082;37.928;2023-03-14T04:31:24;98565.50;;;-0.16;48.58
78117;BME280;67887;59.082;37.928;2023-03-14T04:33:51;98547.53;;;-0.16;48.12
78117;BME280;67887;59.082;37.928;2023-03-14T04:36:23;98560.44;;;-0.17;48.42
78117;BME280;67887;59.082;37.928;2023-03-14T04:38:49;98537.38;;;-0.21;48.49
78117;BME280;67887;59.082;37.928;2023-03-14T04:41:19;98514.38;;;-0.24;48.62
78117;BME280;67887;59.082;37.928;2023-03-14T04:43:45;98506.56;;;-0.19;48.77
78117;BME280;67887;59.082;37.928;2023-03-14T04:46:12;98505.69;;;-0.18;49.30
78117;BME280;67887;59.082;37.928;2023-03-14T04:48:39;98488.47;;;-0.14;49.51
78117;BME280;67887;59.082;37.928;2023-03-14T04:51:06;98473.16;;;-0.17;49.06
78117;BME280;67887;59.082;37.928;2023-03-14T04:53:33;98473.09;;;-0.16;49.07
78117;BME280;67887;59.082;37.928;2023-03-14T04:56:03;98486.81;;;-0.15;49.58
78117;BME280;67887;59.082;37.928;2023-03-14T04:58:36;98497.00;;;-0.14;49.59
78117;BME280;67887;59.082;37.928;2023-03-14T05:01:05;98487.59;;;-0.13;49.51
78117;BME280;67887;59.082;37.928;2023-03-14T05:03:51;98485.09;;;-0.16;49.52
78117;BME280;67887;59.082;37.928;2023-03-14T05:06:43;98497.19;;;-0.20;49.82
78117;BME280;67887;59.082;37.928;2023-03-14T05:09:33;98473.19;;;-0.19;49.66
78117;BME280;67887;59.082;37.928;2023-03-14T05:12:17;98489.41;;;-0.18;49.76
78117;BME280;67887;59.082;37.928;2023-03-14T05:15:07;98496.31;;;-0.21;50.08
78117;BME280;67887;59.082;37.928;2023-03-14T05:17:56;98492.94;;;-0.23;50.14
78117;BME280;67887;59.082;37.928;2023-03-14T05:20:55;98495.47;;;-0.21;50.26
78117;BME280;67887;59.082;37.928;2023-03-14T05:23:35;98473.19;;;-0.19;50.41
78117;BME280;67887;59.082;37.928;2023-03-14T05:26:21;98471.50;;;-0.20;50.54
78117;BME280;67887;59.082;37.928;2023-03-14T05:28:57;98481.81;;;-0.22;50.60
78117;BME280;67887;59.082;37.928;2023-03-14T05:31:58;98480.06;;;-0.19;50.75
78117;BME280;67887;59.082;37.928;2023-03-14T05:34:56;98474.91;;;-0.19;50.45
78117;BME280;67887;59.082;37.928;2023-03-14T05:37:50;98439.78;;;-0.17;50.90
78117;BME280;67887;59.082;37.928;2023-03-14T05:40:27;98437.22;;;-0.17;51.36
78117;BME280;67887;59.082;37.928;2023-03-14T05:43:05;98408.09;;;-0.16;51.14
78117;BME280;67887;59.082;37.928;2023-03-14T05:46:09;98414.03;;;-0.14;51.22
78117;BME280;67887;59.082;37.928;2023-03-14T05:48:43;98415.66;;;-0.12;51.46
78117;BME280;67887;59.082;37.928;2023-03-14T05:51:26;98418.13;;;-0.07;51.67
78117;BME280;67887;59.082;37.928;2023-03-14T05:53:56;98398.38;;;-0.05;52.00
78117;BME280;67887;59.082;37.928;2023-03-14T05:56:31;98382.09;;;-0.04;51.60
78117;BME280;67887;59.082;37.928;2023-03-14T05:59:16;98388.03;;;-0.02;52.13
78117;BME280;67887;59.082;37.928;2023-03-14T06:02:02;98375.22;;;-0.02;52.20
78117;BME280;67887;59.082;37.928;2023-03-14T06:04:36;98391.41;;;0.00;52.08
78117;BME280;67887;59.082;37.928;2023-03-14T06:07:02;98398.22;;;0.01;52.21
78117;BME280;67887;59.082;37.928;2023-03-14T06:09:30;98410.13;;;0.04;52.55
78117;BME280;67887;59.082;37.928;2023-03-14T06:11:59;98390.38;;;0.06;52.62
78117;BME280;67887;59.082;37.928;2023-03-14T06:14:26;98386.91;;;0.08;52.57
78117;BME280;67887;59.082;37.928;2023-03-14T06:16:52;98406.56;;;0.09;52.85
78117;BME280;67887;59.082;37.928;2023-03-14T06:19:20;98406.50;;;0.11;52.72
78117;BME280;67887;59.082;37.928;2023-03-14T06:21:47;98407.31;;;0.13;52.80
78117;BME280;67887;59.082;37.928;2023-03-14T06:24:13;98399.56;;;0.14;52.99
78117;BME280;67887;59.082;37.928;2023-03-14T06:26:44;98410.56;;;0.19;53.15
78117;BME280;67887;59.082;37.928;2023-03-14T06:29:10;98383.09;;;0.22;53.67
78117;BME280;67887;59.082;37.928;2023-03-14T06:31:37;98386.44;;;0.25;53.34
78117;BME280;67887;59.082;37.928;2023-03-14T06:34:06;98381.25;;;0.27;53.55
78117;BME280;67887;59.082;37.928;2023-03-14T06:36:35;98345.34;;;0.25;53.59
78117;BME280;67887;59.082;37.928;2023-03-14T06:39:02;98346.97;;;0.28;53.67
78117;BME280;67887;59.082;37.928;2023-03-14T06:41:30;98359.03;;;0.26;53.84
78117;BME280;67887;59.082;37.928;2023-03-14T06:43:58;98356.44;;;0.26;53.72
78117;BME280;67887;59.082;37.928;2023-03-14T06:46:25;98348.72;;;0.27;54.03
78117;BME280;67887;59.082;37.928;2023-03-14T06:48:52;98341.84;;;0.28;54.33
78117;BME280;67887;59.082;37.928;2023-03-14T06:51:19;98348.50;;;0.33;54.46
78117;BME280;67887;59.082;37.928;2023-03-14T06:53:45;98362.13;;;0.37;54.52
78117;BME280;67887;59.082;37.928;2023-03-14T06:56:14;98342.38;;;0.39;55.10
78117;BME280;67887;59.082;37.928;2023-03-14T06:58:41;98343.09;;;0.43;54.57
78117;BME280;67887;59.082;37.928;2023-03-14T07:01:20;98329.34;;;0.45;54.72
78117;BME280;67887;59.082;37.928;2023-03-14T07:03:46;98332.75;;;0.46;54.75
78117;BME280;67887;59.082;37.928;2023-03-14T07:06:13;98336.81;;;0.53;55.05
78117;BME280;67887;59.082;37.928;2023-03-14T07:08:39;98320.50;;;0.54;55.17
78117;BME280;67887;59.082;37.928;2023-03-14T07:11:05;98332.34;;;0.59;54.95
78117;BME280;67887;59.082;37.928;2023-03-14T07:13:33;98321.13;;;0.62;55.12
78117;BME280;67887;59.082;37.928;2023-03-14T07:16:04;98319.25;;;0.67;55.60
78117;BME280;67887;59.082;37.928;2023-03-14T07:18:31;98312.28;;;0.71;55.37
78117;BME280;67887;59.082;37.928;2023-03-14T07:20:57;98307.00;;;0.75;55.20
78117;BME280;67887;59.082;37.928;2023-03-14T07:23:23;98290.59;;;0.79;55.80
78117;BME280;67887;59.082;37.928;2023-03-14T07:25:52;98294.75;;;0.83;55.70
78117;BME280;67887;59.082;37.928;2023-03-14T07:28:20;98283.53;;;0.86;55.39
78117;BME280;67887;59.082;37.928;2023-03-14T07:30:51;98285.03;;;0.92;55.97
78117;BME280;67887;59.082;37.928;2023-03-14T07:33:23;98276.31;;;0.97;55.86
78117;BME280;67887;59.082;37.928;2023-03-14T07:35:49;98260.88;;;0.97;56.20
78117;BME280;67887;59.082;37.928;2023-03-14T07:38:16;98276.06;;;1.03;56.26
78117;BME280;67887;59.082;37.928;2023-03-14T07:41:04;98268.25;;;1.08;56.00
78117;BME280;67887;59.082;37.928;2023-03-14T07:43:33;98273.28;;;1.11;56.28
78117;BME280;67887;59.082;37.928;2023-03-14T07:46:01;98276.63;;;1.13;56.33
78117;BME280;67887;59.082;37.928;2023-03-14T07:48:27;98258.50;;;1.16;56.31
78117;BME280;67887;59.082;37.928;2023-03-14T07:50:54;98266.88;;;1.23;56.48
78117;BME280;67887;59.082;37.928;2023-03-14T07:53:22;98253.81;;;1.29;56.25
78117;BME280;67887;59.082;37.928;2023-03-14T07:55:51;98263.09;;;1.33;56.57
78117;BME280;67887;59.082;37.928;2023-03-14T07:58:22;98244.13;;;1.36;56.35
78117;BME280;67887;59.082;37.928;2023-03-14T08:00:49;98258.63;;;1.38;56.48
78117;BME280;67887;59.082;37.928;2023-03-14T08:03:17;98253.38;;;1.41;56.87
78117;BME280;67887;59.082;37.928;2023-03-14T08:05:47;98234.47;;;1.42;56.69
78117;BME280;67887;59.082;37.928;2023-03-14T08:08:17;98227.47;;;1.46;56.54
78117;BME280;67887;59.082;37.928;2023-03-14T08:10:43;98230.00;;;1.48;56.66
78117;BME280;67887;59.082;37.928;2023-03-14T08:13:10;98224.72;;;1.51;56.64
78117;BME280;67887;59.082;37.928;2023-03-14T08:15:36;98217.75;;;1.54;57.00
78117;BME280;67887;59.082;37.928;2023-03-14T08:18:04;98224.47;;;1.58;56.76
78117;BME280;67887;59.082;37.928;2023-03-14T08:20:30;98220.94;;;1.61;57.49
78117;BME280;67887;59.082;37.928;2023-03-14T08:22:58;98223.47;;;1.62;56.65
78117;BME280;67887;59.082;37.928;2023-03-14T08:25:26;98224.25;;;1.64;57.29
78117;BME280;67887;59.082;37.928;2023-03-14T08:27:52;98224.13;;;1.67;57.05
78117;BME280;67887;59.082;37.928;2023-03-14T08:30:20;98222.25;;;1.71;56.83
78117;BME280;67887;59.082;37.928;2023-03-14T08:32:46;98226.53;;;1.72;56.71
78117;BME280;67887;59.082;37.928;2023-03-14T08:35:14;98223.78;;;1.77;57.40
78117;BME280;67887;59.082;37.928;2023-03-14T08:37:40;98217.72;;;1.78;57.33
78117;BME280;67887;59.082;37.928;2023-03-14T08:40:08;98206.56;;;1.79;57.14
78117;BME280;67887;59.082;37.928;2023-03-14T08:42:37;98214.22;;;1.80;57.51
78117;BME280;67887;59.082;37.928;2023-03-14T08:45:16;98218.34;;;1.84;57.74
78117;BME280;67887;59.082;37.928;2023-03-14T08:47:43;98221.78;;;1.85;57.23
78117;BME280;67887;59.082;37.928;2023-03-14T08:50:11;98231.19;;;1.86;57.17
78117;BME280;67887;59.082;37.928;2023-03-14T08:52:38;98219.13;;;1.86;57.32
78117;BME280;67887;59.082;37.928;2023-03-14T08:55:08;98235.44;;;1.87;57.58
78117;BME280;67887;59.082;37.928;2023-03-14T08:57:34;98229.25;;;1.91;57.70
78117;BME280;67887;59.082;37.928;2023-03-14T09:00:06;98220.66;;;1.92;57.50
78117;BME280;67887;59.082;37.928;2023-03-14T09:02:38;98225.63;;;1.97;58.04
78117;BME280;67887;59.082;37.928;2023-03-14T09:05:05;98222.16;;;1.98;57.52
78117;BME280;67887;59.082;37.928;2023-03-14T09:07:32;98223.66;;;2.03;57.61
78117;BME280;67887;59.082;37.928;2023-03-14T09:09:58;98213.22;;;2.06;58.59
78117;BME280;67887;59.082;37.928;2023-03-14T09:12:24;98194.25;;;2.09;58.69
78117;BME280;67887;59.082;37.928;2023-03-14T09:14:50;98193.34;;;2.10;58.02
78117;BME280;67887;59.082;37.928;2023-03-14T09:17:17;98198.34;;;2.15;57.97
78117;BME280;67887;59.082;37.928;2023-03-14T09:19:43;98194.84;;;2.16;58.68
78117;BME280;67887;59.082;37.928;2023-03-14T09:22:10;98200.72;;;2.19;58.30
78117;BME280;67887;59.082;37.928;2023-03-14T09:24:36;98195.53;;;2.21;58.61
78117;BME280;67887;59.082;37.928;2023-03-14T09:27:02;98185.88;;;2.26;58.62
78117;BME280;67887;59.082;37.928;2023-03-14T09:29:28;98191.72;;;2.29;59.03
78117;BME280;67887;59.082;37.928;2023-03-14T09:31:54;98207.09;;;2.33;58.60
78117;BME280;67887;59.082;37.928;2023-03-14T09:34:21;98193.19;;;2.37;58.63
78117;BME280;67887;59.082;37.928;2023-03-14T09:36:47;98187.91;;;2.40;59.08
78117;BME280;67887;59.082;37.928;2023-03-14T09:39:14;98188.63;;;2.43;59.34
78117;BME280;67887;59.082;37.928;2023-03-14T09:41:47;98191.06;;;2.46;59.87
78117;BME280;67887;59.082;37.928;2023-03-14T09:44:35;98186.56;;;2.52;59.29
78117;BME280;67887;59.082;37.928;2023-03-14T09:47:07;98193.31;;;2.54;59.22
78117;BME280;67887;59.082;37.928;2023-03-14T09:49:40;98189.78;;;2.57;59.39
78117;BME280;67887;59.082;37.928;2023-03-14T09:52:13;98169.03;;;2.60;60.36
78117;BME280;67887;59.082;37.928;2023-03-14T09:54:52;98183.41;;;2.65;60.19
78117;BME280;67887;59.082;37.928;2023-03-14T09:57:26;98169.59;;;2.68;59.78
78117;BME280;67887;59.082;37.928;2023-03-14T09:59:56;98176.22;;;2.74;60.16
78117;BME280;67887;59.082;37.928;2023-03-14T10:02:28;98151.16;;;2.77;59.92
78117;BME280;67887;59.082;37.928;2023-03-14T10:04:57;98169.06;;;2.80;59.62
78117;BME280;67887;59.082;37.928;2023-03-14T10:07:31;98178.41;;;2.83;59.92
78117;BME280;67887;59.082;37.928;2023-03-14T10:09:58;98172.22;;;2.87;60.58
78117;BME280;67887;59.082;37.928;2023-03-14T10:12:37;98192.81;;;2.88;60.33
78117;BME280;67887;59.082;37.928;2023-03-14T10:15:07;98188.34;;;2.92;60.00
78117;BME280;67887;59.082;37.928;2023-03-14T10:17:50;98194.28;;;2.94;60.38
78117;BME280;67887;59.082;37.928;2023-03-14T10:20:36;98207.03;;;2.97;60.60
78117;BME280;67887;59.082;37.928;2023-03-14T10:25:43;98201.72;;;3.02;60.65
78117;BME280;67887;59.082;37.928;2023-03-14T10:28:29;98215.28;;;3.05;60.72
78117;BME280;67887;59.082;37.928;2023-03-14T10:30:57;98213.50;;;3.07;61.14
78117;BME280;67887;59.082;37.928;2023-03-14T10:33:34;98212.53;;;3.10;61.55
78117;BME280;67887;59.082;37.928;2023-03-14T10:36:21;98201.22;;;3.12;60.48
78117;BME280;67887;59.082;37.928;2023-03-14T10:38:50;98202.00;;;3.15;61.19
78117;BME280;67887;59.082;37.928;2023-03-14T10:41:30;98219.03;;;3.19;61.12
78117;BME280;67887;59.082;37.928;2023-03-14T10:43:58;98216.47;;;3.19;61.72
78117;BME280;67887;59.082;37.928;2023-03-14T10:46:29;98206.91;;;3.21;61.95
78117;BME280;67887;59.082;37.928;2023-03-14T10:49:26;98198.13;;;3.25;61.17
78117;BME280;67887;59.082;37.928;2023-03-14T10:51:54;98204.06;;;3.27;61.25
78117;BME280;67887;59.082;37.928;2023-03-14T10:54:22;98209.16;;;3.28;62.15
78117;BME280;67887;59.082;37.928;2023-03-14T10:57:00;98202.06;;;3.33;61.69
78117;BME280;67887;59.082;37.928;2023-03-14T10:59:36;98195.00;;;3.37;61.94
78117;BME280;67887;59.082;37.928;2023-03-14T11:02:43;98175.97;;;3.40;61.33
78117;BME280;67887;59.082;37.928;2023-03-14T11:08:01;98191.19;;;3.46;62.24
78117;BME280;67887;59.082;37.928;2023-03-14T11:10:35;98189.38;;;3.48;62.70
78117;BME280;67887;59.082;37.928;2023-03-14T11:13:27;98193.50;;;3.52;61.99
78117;BME280;67887;59.082;37.928;2023-03-14T11:16:18;98198.63;;;3.53;62.49
78117;BME280;67887;59.082;37.928;2023-03-14T11:18:54;98197.63;;;3.56;62.49
78117;BME280;67887;59.082;37.928;2023-03-14T11:21:37;98177.75;;;3.58;62.14
78117;BME280;67887;59.082;37.928;2023-03-14T11:27:22;98165.41;;;3.65;62.30
78117;BME280;67887;59.082;37.928;2023-03-14T11:32:54;98173.78;;;3.70;62.67
78117;BME280;67887;59.082;37.928;2023-03-14T11:35:41;98192.53;;;3.73;63.01
78117;BME280;67887;59.082;37.928;2023-03-14T11:38:43;98200.06;;;3.78;62.61
78117;BME280;67887;59.082;37.928;2023-03-14T11:41:29;98200.00;;;3.80;63.20
78117;BME280;67887;59.082;37.928;2023-03-14T11:43:57;98193.09;;;3.80;63.21
78117;BME280;67887;59.082;37.928;2023-03-14T11:46:33;98219.63;;;3.84;62.93
78117;BME280;67887;59.082;37.928;2023-03-14T11:49:03;98210.91;;;3.86;62.90
78117;BME280;67887;59.082;37.928;2023-03-14T11:51:39;98222.00;;;3.88;62.82
78117;BME280;67887;59.082;37.928;2023-03-14T11:54:31;98215.88;;;3.91;62.73
78117;BME280;67887;59.082;37.928;2023-03-14T11:57:02;98218.38;;;3.92;63.46
78117;BME280;67887;59.082;37.928;2023-03-14T11:59:44;98203.66;;;3.94;63.23
78117;BME280;67887;59.082;37.928;2023-03-14T12:02:33;98199.16;;;3.98;63.25
78117;BME280;67887;59.082;37.928;2023-03-14T12:10:41;98209.06;;;4.07;63.58
78117;BME280;67887;59.082;37.928;2023-03-14T12:13:10;98178.94;;;4.08;63.89
78117;BME280;67887;59.082;37.928;2023-03-14T12:15:46;98199.28;;;4.14;63.59
78117;BME280;67887;59.082;37.928;2023-03-14T12:18:35;98200.00;;;4.17;63.78
78117;BME280;67887;59.082;37.928;2023-03-14T12:21:11;98217.88;;;4.22;63.82
78117;BME280;67887;59.082;37.928;2023-03-14T12:23:56;98225.47;;;4.25;64.13
78117;BME280;67887;59.082;37.928;2023-03-14T12:26:25;98210.69;;;4.29;64.22
78117;BME280;67887;59.082;37.928;2023-03-14T12:45:26;98191.34;;;4.55;64.30
78117;BME280;67887;59.082;37.928;2023-03-14T12:48:23;98178.25;;;4.58;63.75
78117;BME280;67887;59.082;37.928;2023-03-14T12:51:02;98181.59;;;4.60;64.15
78117;BME280;67887;59.082;37.928;2023-03-14T12:59:36;98195.19;;;4.64;64.00
78117;BME280;67887;59.082;37.928;2023-03-14T13:12:34;98203.66;;;4.67;64.42
78117;BME280;67887;59.082;37.928;2023-03-14T13:15:11;98197.50;;;4.70;64.54
78117;BME280;67887;59.082;37.928;2023-03-14T13:17:39;98199.19;;;4.71;64.45
78117;BME280;67887;59.082;37.928;2023-03-14T13:20:23;98191.34;;;4.72;64.39
78117;BME280;67887;59.082;37.928;2023-03-14T13:22:50;98181.97;;;4.70;64.44
78117;BME280;67887;59.082;37.928;2023-03-14T13:25:17;98192.09;;;4.74;64.67
78117;BME280;67887;59.082;37.928;2023-03-14T13:27:44;98192.09;;;4.74;64.73
78117;BME280;67887;59.082;37.928;2023-03-14T13:30:29;98202.31;;;4.77;64.81
78117;BME280;67887;59.082;37.928;2023-03-14T13:33:04;98209.16;;;4.78;65.05
78117;BME280;67887;59.082;37.928;2023-03-14T13:35:39;98199.56;;;4.80;65.10
78117;BME280;67887;59.082;37.928;2023-03-14T13:38:21;98183.28;;;4.78;64.75
78117;BME280;67887;59.082;37.928;2023-03-14T13:40:50;98200.41;;;4.81;64.61
78117;BME280;67887;59.082;37.928;2023-03-14T13:45:54;98189.91;;;4.84;65.26
78117;BME280;67887;59.082;37.928;2023-03-14T13:48:26;98186.47;;;4.84;65.07
78117;BME280;67887;59.082;37.928;2023-03-14T13:50:56;98182.81;;;4.88;65.27
78117;BME280;67887;59.082;37.928;2023-03-14T13:53:24;98167.22;;;4.89;65.16
78117;BME280;67887;59.082;37.928;2023-03-14T13:55:51;98180.16;;;4.89;65.66
78117;BME280;67887;59.082;37.928;2023-03-14T13:58:26;98179.16;;;4.92;65.53
78117;BME280;67887;59.082;37.928;2023-03-14T14:01:05;98174.88;;;4.91;65.38
78117;BME280;67887;59.082;37.928;2023-03-14T14:03:37;98183.59;;;4.90;65.58
78117;BME280;67887;59.082;37.928;2023-03-14T14:06:16;98175.59;;;4.94;65.35
78117;BME280;67887;59.082;37.928;2023-03-14T14:08:45;98186.75;;;4.95;65.60
78117;BME280;67887;59.082;37.928;2023-03-14T14:11:20;98204.88;;;4.95;65.23
78117;BME280;67887;59.082;37.928;2023-03-14T14:13:48;98219.41;;;4.97;65.62
78117;BME280;67887;59.082;37.928;2023-03-14T14:16:20;98204.81;;;4.96;65.64
78117;BME280;67887;59.082;37.928;2023-03-14T14:18:51;98207.34;;;4.98;65.41
78117;BME280;67887;59.082;37.928;2023-03-14T14:21:18;98209.75;;;5.01;65.85
78117;BME280;67887;59.082;37.928;2023-03-14T14:23:44;98218.34;;;5.01;65.56